createdAt,value
2018-05-03T00:00:04.031Z,8.00
2018-05-03T00:01:04.120Z,7.98
2018-05-03T00:02:04.086Z,7.90
2018-05-03T00:03:03.905Z,7.97
2018-05-03T00:04:03.931Z,7.90
2018-05-03T00:05:03.886Z,7.92
2018-05-03T00:06:03.814Z,8.04
2018-05-03T00:07:03.787Z,7.98
2018-05-03T00:08:03.886Z,8.05
2018-05-03T00:09:03.684Z,7.95
2018-05-03T00:10:03.664Z,7.95
2018-05-03T00:11:03.646Z,7.93
2018-05-03T00:12:03.581Z,7.92
2018-05-03T00:13:03.619Z,8.01
2018-05-03T00:14:03.504Z,8.02
2018-05-03T00:15:03.508Z,8.00
2018-05-03T00:16:03.393Z,8.04
2018-05-03T00:17:03.435Z,8.10
2018-05-03T00:18:03.328Z,8.01
2018-05-03T00:19:03.340Z,7.93
2018-05-03T00:20:03.253Z,8.02
2018-05-03T00:21:03.250Z,8.00
2018-05-03T00:22:03.188Z,8.08
2018-05-03T00:23:03.145Z,8.04
2018-05-03T00:24:03.157Z,8.11
2018-05-03T00:25:03.072Z,8.08
2018-05-03T00:26:02.985Z,8.19
2018-05-03T00:27:02.985Z,8.20
2018-05-03T00:28:03.025Z,8.23
2018-05-03T00:29:02.906Z,8.20
2018-05-03T00:30:02.954Z,8.15
2018-05-03T00:31:02.875Z,8.15
2018-05-03T00:32:02.855Z,8.18
2018-05-03T00:33:02.835Z,8.22
2018-05-03T00:34:02.719Z,8.23
2018-05-03T00:35:02.669Z,8.28
2018-05-03T00:36:02.677Z,8.25
2018-05-03T00:37:02.591Z,8.22
2018-05-03T00:38:02.554Z,8.25
2018-05-03T00:39:02.516Z,8.25
2018-05-03T00:40:02.474Z,8.25
2018-05-03T00:41:02.408Z,8.25
2018-05-03T00:42:02.428Z,8.30
2018-05-03T00:43:02.372Z,8.41
2018-05-03T00:44:02.319Z,8.45
2018-05-03T00:45:02.289Z,8.43
2018-05-03T00:46:02.241Z,8.45
2018-05-03T00:47:02.188Z,8.41
2018-05-03T00:48:02.179Z,8.45
2018-05-03T00:49:02.189Z,8.44
2018-05-03T00:50:02.108Z,8.45
2018-05-03T00:51:02.025Z,8.53
2018-05-03T00:52:01.983Z,8.47
2018-05-03T00:53:01.960Z,8.61
2018-05-03T00:54:01.910Z,8.56
2018-05-03T00:55:01.855Z,8.62
2018-05-03T00:56:01.874Z,8.63
2018-05-03T00:57:01.918Z,8.66
2018-05-03T00:58:01.764Z,8.65
2018-05-03T00:59:01.801Z,8.77
2018-05-03T01:00:01.713Z,8.86
2018-05-03T01:01:01.663Z,8.81
2018-05-03T01:03:37.061Z,8.84
2018-05-03T01:04:35.859Z,8.83
2018-05-03T01:06:30.570Z,8.83
2018-05-03T01:07:29.326Z,8.86
2018-05-03T01:09:24.339Z,8.84
2018-05-03T01:10:24.382Z,8.95
2018-05-03T01:13:50.391Z,8.92
2018-05-03T01:14:48.421Z,8.84
2018-05-03T01:16:48.115Z,8.86
2018-05-03T01:17:45.928Z,8.95
2018-05-03T01:19:41.273Z,8.96
2018-05-03T01:20:41.295Z,8.92
2018-05-03T01:22:55.692Z,8.89
2018-05-03T01:23:34.345Z,8.94
2018-05-03T01:25:28.839Z,9.01
2018-05-03T01:26:27.507Z,8.91
2018-05-03T01:28:22.322Z,9.05
2018-05-03T01:29:20.966Z,9.05
2018-05-03T01:31:27.790Z,9.13
2018-05-03T01:32:27.699Z,8.95
2018-05-03T01:34:20.595Z,9.13
2018-05-03T01:35:20.632Z,9.01
2018-05-03T01:37:13.675Z,9.08
2018-05-03T01:38:13.215Z,8.95
2018-05-03T01:40:06.686Z,9.11
2018-05-03T01:41:07.115Z,9.11
2018-05-03T01:43:00.074Z,9.11
2018-05-03T01:43:59.991Z,9.01
2018-05-03T01:45:52.904Z,9.04
2018-05-03T01:46:51.683Z,9.04
2018-05-03T01:48:46.502Z,9.08
2018-05-03T01:49:46.063Z,8.98
2018-05-03T01:51:39.387Z,8.94
2018-05-03T01:52:39.278Z,8.89
2018-05-03T01:54:32.235Z,8.94
2018-05-03T01:55:32.449Z,9.01
2018-05-03T01:57:25.365Z,8.94
2018-05-03T01:58:25.288Z,8.95
2018-05-03T02:00:18.306Z,8.95
2018-05-03T02:01:16.487Z,8.98
2018-05-03T02:03:11.337Z,9.04
2018-05-03T02:04:10.819Z,9.05
2018-05-03T02:06:04.200Z,9.04
2018-05-03T02:07:03.731Z,9.04
2018-05-03T02:08:57.138Z,8.98
2018-05-03T02:09:57.083Z,8.98
2018-05-03T02:11:50.127Z,8.94
2018-05-03T02:12:48.256Z,8.96
2018-05-03T02:14:43.099Z,8.96
2018-05-03T02:15:42.873Z,8.99
2018-05-03T02:17:36.813Z,9.04
2018-05-03T02:18:35.309Z,9.05
2018-05-03T02:20:30.531Z,9.04
2018-05-03T02:21:30.434Z,9.10
2018-05-03T02:23:23.432Z,8.89
2018-05-03T02:24:23.368Z,9.05
2018-05-03T02:26:16.778Z,9.08
2018-05-03T02:27:16.220Z,9.10
2018-05-03T02:29:09.382Z,9.01
2018-05-03T02:30:07.478Z,9.05
2018-05-03T02:32:02.741Z,9.13
2018-05-03T02:33:01.592Z,9.11
2018-05-03T02:34:55.864Z,9.02
2018-05-03T02:35:54.870Z,9.05
2018-05-03T02:37:49.109Z,9.04
2018-05-03T02:38:47.754Z,9.13
2018-05-03T02:39:48.734Z,9.01
2018-05-03T02:40:48.861Z,8.98
2018-05-03T02:41:48.644Z,8.98
2018-05-03T02:42:48.554Z,8.96
2018-05-03T02:43:48.726Z,8.96
2018-05-03T02:44:48.548Z,8.91
2018-05-03T02:45:48.531Z,8.95
2018-05-03T02:46:46.490Z,8.86
2018-05-03T02:47:46.145Z,8.92
2018-05-03T02:48:46.194Z,8.92
2018-05-03T02:49:46.160Z,8.89
2018-05-03T02:50:46.071Z,8.83
2018-05-03T02:51:46.019Z,8.79
2018-05-03T02:52:45.946Z,8.74
2018-05-03T02:53:45.913Z,8.68
2018-05-03T02:54:45.874Z,8.55
2018-05-03T02:55:45.841Z,8.45
2018-05-03T02:56:45.829Z,8.26
2018-05-03T02:57:45.801Z,8.38
2018-05-03T02:58:45.741Z,8.22
2018-05-03T02:59:45.717Z,8.25
2018-05-03T03:00:45.670Z,8.15
2018-05-03T03:01:45.738Z,8.15
2018-05-03T03:02:45.568Z,8.19
2018-05-03T03:03:45.598Z,8.07
2018-05-03T03:04:45.522Z,8.04
2018-05-03T03:05:45.502Z,8.19
2018-05-03T03:06:45.426Z,8.22
2018-05-03T03:07:45.428Z,8.19
2018-05-03T03:08:45.333Z,8.15
2018-05-03T03:09:45.379Z,8.19
2018-05-03T03:10:45.246Z,8.16
2018-05-03T03:11:45.243Z,8.18
2018-05-03T03:12:45.246Z,8.00
2018-05-03T03:13:45.173Z,7.92
2018-05-03T03:14:45.097Z,8.02
2018-05-03T03:15:45.057Z,7.97
2018-05-03T03:16:45.024Z,7.89
2018-05-03T03:17:44.996Z,7.80
2018-05-03T03:18:44.951Z,7.55
2018-05-03T03:19:44.956Z,7.46
2018-05-03T03:20:44.864Z,7.42
2018-05-03T03:21:44.816Z,7.49
2018-05-03T03:22:44.791Z,7.49
2018-05-03T03:23:44.809Z,7.45
2018-05-03T03:24:44.712Z,7.52
2018-05-03T03:25:44.677Z,7.61
2018-05-03T03:26:44.631Z,7.61
2018-05-03T03:27:44.603Z,7.58
2018-05-03T03:28:44.565Z,7.52
2018-05-03T03:29:44.530Z,7.49
2018-05-03T03:30:44.467Z,7.52
2018-05-03T03:31:44.442Z,7.61
2018-05-03T03:32:44.439Z,7.50
2018-05-03T03:33:44.353Z,7.58
2018-05-03T03:34:44.306Z,7.52
2018-05-03T03:35:44.260Z,7.48
2018-05-03T03:36:44.240Z,7.42
2018-05-03T03:37:44.193Z,7.52
2018-05-03T03:38:44.208Z,7.48
2018-05-03T03:39:44.149Z,7.43
2018-05-03T03:40:44.100Z,7.31
2018-05-03T03:41:44.019Z,7.31
2018-05-03T03:42:44.016Z,7.16
2018-05-03T03:43:43.964Z,7.20
2018-05-03T03:44:43.947Z,7.24
2018-05-03T03:45:45.472Z,7.24
2018-05-03T03:47:40.981Z,6.98
2018-05-03T03:48:39.280Z,7.06
2018-05-03T03:50:33.627Z,6.87
2018-05-03T03:51:33.538Z,6.79
2018-05-03T03:53:26.540Z,6.84
2018-05-03T03:54:26.601Z,6.74
2018-05-03T03:56:19.407Z,6.91
2018-05-03T03:57:19.419Z,6.95
2018-05-03T03:59:12.567Z,6.88
2018-05-03T04:00:11.170Z,7.02
2018-05-03T04:02:05.355Z,6.89
2018-05-03T04:03:05.331Z,6.81
2018-05-03T04:05:00.210Z,6.74
2018-05-03T04:05:59.810Z,6.76
2018-05-03T04:06:59.812Z,6.88
2018-05-03T04:07:59.729Z,7.05
2018-05-03T04:08:58.190Z,6.95
2018-05-03T04:09:59.751Z,6.97
2018-05-03T04:10:59.753Z,6.85
2018-05-03T04:11:59.636Z,6.89
2018-05-03T04:12:59.638Z,6.94
2018-05-03T04:14:00.621Z,7.02
2018-05-03T04:15:00.802Z,7.20
2018-05-03T04:16:53.899Z,7.31
2018-05-03T04:17:53.901Z,7.27
2018-05-03T04:19:46.882Z,7.40
2018-05-03T04:20:46.947Z,7.48
2018-05-03T04:22:39.916Z,7.50
2018-05-03T04:23:38.051Z,7.53
2018-05-03T04:25:32.787Z,7.55
2018-05-03T04:26:32.156Z,7.49
2018-05-03T04:28:25.904Z,7.64
2018-05-03T04:29:23.976Z,7.71
2018-05-03T04:31:18.747Z,7.75
2018-05-03T04:32:18.765Z,7.77
2018-05-03T04:34:16.592Z,7.75
2018-05-03T04:35:15.874Z,7.86
2018-05-03T04:37:09.709Z,7.86
2018-05-03T04:38:09.367Z,7.93
2018-05-03T04:40:02.758Z,8.02
2018-05-03T04:41:00.561Z,7.98
2018-05-03T04:42:55.261Z,8.02
2018-05-03T04:43:55.200Z,8.05
2018-05-03T04:45:48.806Z,8.23
2018-05-03T04:46:48.761Z,8.28
2018-05-03T04:48:41.752Z,8.30
2018-05-03T04:49:41.595Z,8.40
2018-05-03T04:51:34.625Z,8.52
2018-05-03T04:52:34.620Z,8.55
2018-05-03T04:54:27.670Z,8.63
2018-05-03T04:55:27.639Z,8.48
2018-05-03T04:57:20.968Z,8.47
2018-05-03T04:58:19.292Z,8.58
2018-05-03T05:00:13.196Z,8.66
2018-05-03T05:01:11.786Z,8.73
2018-05-03T05:03:06.512Z,8.74
2018-05-03T05:04:04.751Z,8.74
2018-05-03T05:05:59.463Z,8.76
2018-05-03T05:06:59.437Z,8.84
2018-05-03T05:08:52.370Z,8.94
2018-05-03T05:09:50.911Z,8.87
2018-05-03T05:11:45.390Z,8.86
2018-05-03T05:12:43.377Z,8.83
2018-05-03T05:14:38.372Z,8.87
2018-05-03T05:15:38.218Z,8.99
2018-05-03T05:17:34.178Z,9.17
2018-05-03T05:20:27.795Z,9.26
2018-05-03T05:21:27.619Z,9.26
2018-05-03T05:23:20.252Z,9.35
2018-05-03T05:24:19.445Z,9.36
2018-05-03T05:26:13.705Z,9.39
2018-05-03T05:27:12.297Z,9.43
2018-05-03T05:29:06.560Z,9.47
2018-05-03T05:30:06.542Z,9.71
2018-05-03T05:32:01.164Z,9.90
2018-05-03T05:32:59.078Z,10.01
2018-05-03T05:34:54.119Z,10.23
2018-05-03T05:35:53.947Z,10.30
2018-05-03T05:37:46.878Z,10.44
2018-05-03T05:38:45.026Z,10.53
2018-05-03T05:40:39.507Z,10.67
2018-05-03T05:41:39.779Z,10.61
2018-05-03T05:43:32.886Z,10.88
2018-05-03T05:44:31.201Z,10.99
2018-05-03T05:46:25.838Z,11.37
2018-05-03T05:47:24.120Z,11.43
2018-05-03T05:49:19.866Z,11.39
2018-05-03T05:50:20.293Z,11.51
2018-05-03T05:52:13.821Z,11.72
2018-05-03T05:53:11.858Z,11.86
2018-05-03T05:55:07.358Z,12.31
2018-05-03T05:56:07.071Z,12.21
2018-05-03T05:58:00.297Z,12.49
2018-05-03T05:58:58.357Z,12.79
2018-05-03T06:00:52.570Z,12.38
2018-05-03T06:01:51.297Z,12.21
2018-05-03T06:03:46.090Z,11.85
2018-05-03T06:04:46.048Z,12.13
2018-05-03T06:06:39.146Z,12.42
2018-05-03T06:07:37.238Z,12.50
2018-05-03T06:09:32.129Z,12.38
2018-05-03T06:10:31.937Z,12.27
2018-05-03T06:11:31.780Z,12.38
2018-05-03T06:12:31.988Z,12.49
2018-05-03T06:13:31.895Z,12.53
2018-05-03T06:14:30.177Z,12.50
2018-05-03T06:15:31.906Z,12.49
2018-05-03T06:16:32.108Z,12.41
2018-05-03T06:17:31.985Z,12.45
2018-05-03T06:18:31.902Z,12.41
2018-05-03T06:19:30.163Z,12.34
2018-05-03T06:20:29.799Z,12.50
2018-05-03T06:21:31.046Z,12.67
2018-05-03T06:22:29.868Z,12.65
2018-05-03T06:23:31.701Z,12.74
2018-05-03T06:24:31.522Z,12.68
2018-05-03T06:25:31.566Z,12.57
2018-05-03T06:26:31.554Z,12.54
2018-05-03T06:27:29.487Z,12.50
2018-05-03T06:28:29.339Z,12.64
2018-05-03T06:29:29.299Z,12.67
2018-05-03T06:30:29.216Z,12.47
2018-05-03T06:31:29.156Z,12.65
2018-05-03T06:32:29.135Z,12.64
2018-05-03T06:33:29.088Z,12.92
2018-05-03T06:34:29.160Z,12.95
2018-05-03T06:35:29.016Z,12.93
2018-05-03T06:36:29.021Z,12.96
2018-05-03T06:37:28.962Z,12.97
2018-05-03T06:38:29.778Z,12.96
2018-05-03T06:39:28.888Z,13.11
2018-05-03T06:40:28.857Z,13.12
2018-05-03T06:41:28.901Z,13.08
2018-05-03T06:42:28.793Z,13.23
2018-05-03T06:43:28.856Z,13.41
2018-05-03T06:44:28.739Z,14.32
2018-05-03T06:45:28.710Z,15.09
2018-05-03T06:46:28.640Z,15.57
2018-05-03T06:47:28.648Z,16.00
2018-05-03T06:48:28.575Z,16.45
2018-05-03T06:49:28.631Z,16.85
2018-05-03T06:50:28.513Z,16.93
2018-05-03T06:51:28.531Z,16.83
2018-05-03T06:52:28.473Z,17.16
2018-05-03T06:53:28.411Z,17.11
2018-05-03T06:54:28.391Z,16.34
2018-05-03T06:55:28.499Z,16.82
2018-05-03T06:56:28.340Z,16.88
2018-05-03T06:57:28.366Z,17.56
2018-05-03T06:58:28.309Z,17.66
2018-05-03T06:59:28.257Z,18.25
2018-05-03T07:00:28.238Z,18.11
2018-05-03T07:01:28.194Z,18.42
2018-05-03T07:02:28.145Z,18.78
2018-05-03T07:03:28.147Z,18.37
2018-05-03T07:04:28.179Z,19.02
2018-05-03T07:05:28.062Z,18.29
2018-05-03T07:06:28.038Z,17.63
2018-05-03T07:07:27.988Z,18.05
2018-05-03T07:08:28.005Z,17.63
2018-05-03T07:09:27.950Z,17.18
2018-05-03T07:10:27.906Z,17.52
2018-05-03T07:11:27.945Z,17.87
2018-05-03T07:12:27.879Z,17.54
2018-05-03T07:13:27.834Z,17.82
2018-05-03T07:14:27.798Z,17.48
2018-05-03T07:15:27.888Z,18.39
2018-05-03T07:16:27.727Z,18.55
2018-05-03T07:17:27.736Z,17.84
2018-05-03T07:18:27.701Z,17.26
2018-05-03T07:19:27.678Z,18.72
2018-05-03T07:20:27.618Z,18.25
2018-05-03T07:21:27.672Z,18.63
2018-05-03T07:22:27.610Z,19.02
2018-05-03T07:23:27.548Z,19.40
2018-05-03T07:24:27.535Z,19.04
2018-05-03T07:25:27.633Z,18.82
2018-05-03T07:26:27.492Z,19.43
2018-05-03T07:27:27.444Z,19.19
2018-05-03T07:28:27.441Z,19.63
2018-05-03T07:29:27.468Z,18.94
2018-05-03T07:30:27.408Z,18.88
2018-05-03T07:31:27.394Z,19.50
2018-05-03T07:32:27.319Z,19.44
2018-05-03T07:33:27.346Z,18.70
2018-05-03T07:34:27.278Z,18.72
2018-05-03T07:35:27.243Z,19.95
2018-05-03T07:36:27.250Z,19.40
2018-05-03T07:37:27.206Z,18.62
2018-05-03T07:38:27.166Z,18.84
2018-05-03T07:39:27.169Z,19.91
2018-05-03T07:40:27.195Z,19.84
2018-05-03T07:41:27.131Z,19.48
2018-05-03T07:42:27.103Z,18.45
2018-05-03T07:43:27.088Z,18.90
2018-05-03T07:44:27.030Z,18.36
2018-05-03T07:45:26.998Z,19.19
2018-05-03T07:46:26.975Z,19.47
2018-05-03T07:47:26.966Z,19.40
2018-05-03T07:48:26.948Z,17.87
2018-05-03T07:49:26.943Z,17.90
2018-05-03T07:50:26.900Z,19.29
2018-05-03T07:51:26.887Z,18.87
2018-05-03T07:52:26.843Z,18.33
2018-05-03T07:53:26.826Z,16.96
2018-05-03T07:54:26.807Z,17.89
2018-05-03T07:55:26.777Z,17.06
2018-05-03T07:56:26.744Z,17.40
2018-05-03T07:57:26.773Z,17.58
2018-05-03T07:58:26.716Z,16.50
2018-05-03T07:59:26.699Z,16.67
2018-05-03T08:00:26.667Z,16.48
2018-05-03T08:01:26.631Z,16.75
2018-05-03T08:02:26.607Z,17.23
2018-05-03T08:03:26.560Z,16.78
2018-05-03T08:04:27.289Z,16.46
2018-05-03T08:05:26.526Z,16.46
2018-05-03T08:06:26.498Z,16.63
2018-05-03T08:07:26.481Z,16.63
2018-05-03T08:08:26.440Z,16.83
2018-05-03T08:09:26.422Z,16.86
2018-05-03T08:10:26.379Z,16.83
2018-05-03T08:11:26.386Z,16.53
2018-05-03T08:12:26.383Z,16.71
2018-05-03T08:13:26.337Z,17.04
2018-05-03T08:14:26.282Z,16.86
2018-05-03T08:15:26.282Z,16.58
2018-05-03T08:16:26.280Z,16.48
2018-05-03T08:17:26.208Z,16.93
2018-05-03T08:18:26.255Z,16.58
2018-05-03T08:19:26.152Z,16.42
2018-05-03T08:20:26.106Z,16.43
2018-05-03T08:21:26.133Z,16.68
2018-05-03T08:22:26.118Z,16.57
2018-05-03T08:23:26.029Z,16.71
2018-05-03T08:24:26.036Z,16.75
2018-05-03T08:25:26.022Z,17.12
2018-05-03T08:26:25.960Z,16.53
2018-05-03T08:27:25.943Z,16.75
2018-05-03T08:28:25.961Z,17.21
2018-05-03T08:29:25.867Z,17.21
2018-05-03T08:30:25.853Z,17.49
2018-05-03T08:31:26.303Z,16.98
2018-05-03T08:32:25.777Z,17.16
2018-05-03T08:33:25.746Z,16.78
2018-05-03T08:34:25.754Z,16.98
2018-05-03T08:35:26.296Z,17.26
2018-05-03T08:36:25.705Z,16.94
2018-05-03T08:37:25.648Z,17.07
2018-05-03T08:38:25.607Z,16.85
2018-05-03T08:39:25.550Z,17.33
2018-05-03T08:40:25.581Z,17.25
2018-05-03T08:41:25.540Z,17.16
2018-05-03T08:42:25.482Z,17.31
2018-05-03T08:43:25.476Z,17.78
2018-05-03T08:44:25.422Z,17.30
2018-05-03T08:45:25.390Z,17.25
2018-05-03T08:46:25.380Z,17.15
2018-05-03T08:47:25.354Z,17.54
2018-05-03T08:48:25.336Z,17.63
2018-05-03T08:49:25.338Z,18.07
2018-05-03T08:50:25.264Z,18.30
2018-05-03T08:51:25.241Z,16.98
2018-05-03T08:52:25.204Z,17.31
2018-05-03T08:53:25.166Z,17.11
2018-05-03T08:54:25.125Z,17.25
2018-05-03T08:55:25.099Z,17.15
2018-05-03T08:56:25.069Z,16.88
2018-05-03T08:57:25.054Z,16.66
2018-05-03T08:58:25.009Z,17.00
2018-05-03T08:59:24.991Z,17.06
2018-05-03T09:00:24.974Z,17.40
2018-05-03T09:01:24.923Z,17.30
2018-05-03T09:02:24.909Z,17.36
2018-05-03T09:03:24.877Z,17.22
2018-05-03T09:04:24.827Z,17.33
2018-05-03T09:05:24.815Z,17.23
2018-05-03T09:06:24.754Z,17.26
2018-05-03T09:07:24.738Z,16.93
2018-05-03T09:08:24.718Z,16.60
2018-05-03T09:09:24.689Z,16.12
2018-05-03T09:10:24.660Z,16.66
2018-05-03T09:11:24.644Z,17.18
2018-05-03T09:12:24.598Z,16.70
2018-05-03T09:13:24.554Z,17.36
2018-05-03T09:14:24.560Z,17.37
2018-05-03T09:15:24.523Z,17.64
2018-05-03T09:16:24.477Z,17.06
2018-05-03T09:17:24.453Z,17.62
2018-05-03T09:18:24.410Z,17.92
2018-05-03T09:19:24.412Z,18.32
2018-05-03T09:20:24.373Z,18.90
2018-05-03T09:21:24.336Z,18.98
2018-05-03T09:22:24.347Z,19.23
2018-05-03T09:23:25.942Z,19.51
2018-05-03T09:24:24.262Z,19.62
2018-05-03T09:25:24.250Z,19.80
2018-05-03T09:26:24.232Z,19.81
2018-05-03T09:27:24.142Z,19.58
2018-05-03T09:28:24.119Z,18.58
2018-05-03T09:29:24.118Z,18.33
2018-05-03T09:30:24.104Z,18.55
2018-05-03T09:31:24.059Z,18.92
2018-05-03T09:32:24.045Z,18.62
2018-05-03T09:33:23.981Z,18.90
2018-05-03T09:34:23.958Z,18.76
2018-05-03T09:35:23.945Z,19.47
2018-05-03T09:36:23.893Z,20.79
2018-05-03T09:37:23.869Z,21.22
2018-05-03T09:38:23.819Z,20.79
2018-05-03T09:39:23.801Z,20.85
2018-05-03T09:40:23.880Z,19.46
2018-05-03T09:41:23.743Z,20.03
2018-05-03T09:42:23.716Z,20.43
2018-05-03T09:43:23.674Z,18.35
2018-05-03T09:44:23.693Z,18.23
2018-05-03T09:45:23.665Z,18.30
2018-05-03T09:46:23.630Z,17.90
2018-05-03T09:47:23.571Z,18.48
2018-05-03T09:48:23.541Z,19.08
2018-05-03T09:49:23.503Z,19.06
2018-05-03T09:50:23.476Z,18.80
2018-05-03T09:51:23.493Z,18.03
2018-05-03T09:52:23.448Z,18.88
2018-05-03T09:53:23.456Z,18.27
2018-05-03T09:54:23.414Z,18.42
2018-05-03T09:55:23.330Z,18.73
2018-05-03T09:56:23.396Z,19.02
2018-05-03T09:57:23.279Z,19.22
2018-05-03T09:58:23.297Z,19.37
2018-05-03T09:59:23.316Z,19.40
2018-05-03T10:00:23.202Z,20.58
2018-05-03T10:01:23.169Z,20.79
2018-05-03T10:02:23.172Z,21.03
2018-05-03T10:03:23.131Z,20.16
2018-05-03T10:04:23.109Z,19.92
2018-05-03T10:05:23.075Z,20.13
2018-05-03T10:06:23.064Z,20.39
2018-05-03T10:07:23.010Z,19.39
2018-05-03T10:08:23.026Z,19.51
2018-05-03T10:09:22.983Z,19.83
2018-05-03T10:10:22.960Z,20.41
2018-05-03T10:11:22.910Z,20.84
2018-05-03T10:12:22.893Z,21.96
2018-05-03T10:13:23.012Z,22.02
2018-05-03T10:14:22.854Z,22.17
2018-05-03T10:15:22.806Z,20.85
2018-05-03T10:16:22.771Z,20.35
2018-05-03T10:17:22.796Z,20.36
2018-05-03T10:18:22.723Z,20.80
2018-05-03T10:19:22.690Z,19.73
2018-05-03T10:20:22.706Z,19.41
2018-05-03T10:21:22.782Z,19.95
2018-05-03T10:22:22.643Z,20.87
2018-05-03T10:23:22.671Z,21.21
2018-05-03T10:24:22.581Z,19.98
2018-05-03T10:25:22.565Z,20.24
2018-05-03T10:26:22.561Z,19.47
2018-05-03T10:27:22.492Z,20.55
2018-05-03T10:28:22.541Z,21.01
2018-05-03T10:29:22.450Z,18.95
2018-05-03T10:30:22.400Z,17.95
2018-05-03T10:31:22.381Z,18.07
2018-05-03T10:32:22.392Z,18.05
2018-05-03T10:33:22.395Z,17.51
2018-05-03T10:34:22.322Z,18.62
2018-05-03T10:35:22.281Z,19.26
2018-05-03T10:36:22.400Z,20.33
2018-05-03T10:37:22.260Z,19.69
2018-05-03T10:38:22.848Z,19.39
2018-05-03T10:39:22.225Z,18.66
2018-05-03T10:40:22.159Z,18.39
2018-05-03T10:41:22.128Z,17.93
2018-05-03T10:42:22.115Z,18.15
2018-05-03T10:43:22.072Z,18.33
2018-05-03T10:44:22.071Z,17.81
2018-05-03T10:45:22.066Z,18.75
2018-05-03T10:46:22.007Z,19.96
2018-05-03T10:47:22.021Z,20.61
2018-05-03T10:48:21.977Z,20.28
2018-05-03T10:49:21.970Z,19.74
2018-05-03T10:50:21.920Z,19.46
2018-05-03T10:51:21.912Z,20.03
2018-05-03T10:52:21.892Z,19.92
2018-05-03T10:53:21.815Z,19.16
2018-05-03T10:54:21.891Z,18.76
2018-05-03T10:55:21.775Z,19.83
2018-05-03T10:56:21.741Z,19.51
2018-05-03T10:57:21.762Z,20.18
2018-05-03T10:58:21.791Z,19.86
2018-05-03T10:59:21.644Z,21.14
2018-05-03T11:00:21.633Z,21.03
2018-05-03T11:01:21.628Z,21.35
2018-05-03T11:02:21.760Z,21.44
2018-05-03T11:03:21.558Z,21.96
2018-05-03T11:04:21.547Z,22.80
2018-05-03T11:05:21.542Z,22.33
2018-05-03T11:06:21.573Z,20.79
2018-05-03T11:07:21.487Z,21.06
2018-05-03T11:08:21.436Z,21.01
2018-05-03T11:09:21.472Z,20.66
2018-05-03T11:10:21.389Z,20.62
2018-05-03T11:11:21.354Z,19.68
2018-05-03T11:12:21.487Z,18.80
2018-05-03T11:13:21.328Z,19.08
2018-05-03T11:14:21.277Z,19.16
2018-05-03T11:15:21.260Z,18.07
2018-05-03T11:16:21.258Z,18.52
2018-05-03T11:17:21.208Z,19.36
2018-05-03T11:18:21.165Z,18.80
2018-05-03T11:19:21.171Z,19.11
2018-05-03T11:20:21.183Z,19.48
2018-05-03T11:21:21.142Z,19.99
2018-05-03T11:22:21.098Z,19.44
2018-05-03T11:23:21.109Z,19.16
2018-05-03T11:24:21.081Z,19.47
2018-05-03T11:25:21.004Z,19.33
2018-05-03T11:26:21.129Z,18.87
2018-05-03T11:27:20.950Z,18.44
2018-05-03T11:28:21.871Z,18.98
2018-05-03T11:29:20.977Z,18.15
2018-05-03T11:30:21.020Z,18.18
2018-05-03T11:31:20.910Z,18.21
2018-05-03T11:32:20.822Z,18.51
2018-05-03T11:33:20.833Z,18.60
2018-05-03T11:34:20.769Z,18.45
2018-05-03T11:35:20.770Z,19.21
2018-05-03T11:36:20.711Z,19.68
2018-05-03T11:37:20.741Z,19.47
2018-05-03T11:38:20.818Z,19.04
2018-05-03T11:39:20.728Z,18.32
2018-05-03T11:40:20.707Z,19.50
2018-05-03T11:41:20.611Z,19.48
2018-05-03T11:42:20.690Z,19.22
2018-05-03T11:43:20.829Z,19.61
2018-05-03T11:44:20.840Z,19.59
2018-05-03T11:45:20.585Z,19.92
2018-05-03T11:46:20.519Z,19.66
2018-05-03T11:47:20.536Z,19.31
2018-05-03T11:48:20.417Z,19.94
2018-05-03T11:49:20.501Z,19.86
2018-05-03T11:50:20.359Z,20.80
2018-05-03T11:51:20.379Z,20.29
2018-05-03T11:52:20.302Z,20.55
2018-05-03T11:53:20.302Z,20.58
2018-05-03T11:54:20.300Z,19.48
2018-05-03T11:55:20.242Z,19.84
2018-05-03T11:56:20.347Z,20.02
2018-05-03T11:57:20.203Z,20.13
2018-05-03T11:58:20.155Z,19.61
2018-05-03T12:00:16.365Z,20.64
2018-05-03T12:01:15.665Z,19.78
2018-05-03T12:03:10.722Z,19.94
2018-05-03T12:04:10.377Z,19.99
2018-05-03T12:06:05.138Z,20.47
2018-05-03T12:07:03.018Z,20.26
2018-05-03T12:08:59.055Z,20.31
2018-05-03T12:09:58.923Z,20.33
2018-05-03T12:11:56.447Z,20.54
2018-05-03T12:12:57.634Z,20.31
2018-05-03T12:13:56.171Z,20.11
2018-05-03T12:14:56.299Z,19.77
2018-05-03T12:15:54.378Z,19.39
2018-05-03T12:16:56.303Z,18.94
2018-05-03T12:17:56.292Z,18.94
2018-05-03T12:18:54.155Z,19.19
2018-05-03T12:19:56.171Z,19.61
2018-05-03T12:20:56.188Z,19.51
2018-05-03T12:21:55.828Z,20.13
2018-05-03T12:22:56.159Z,20.33
2018-05-03T12:23:56.093Z,20.05
2018-05-03T12:24:56.251Z,20.10
2018-05-03T12:25:55.343Z,20.79
2018-05-03T12:26:54.068Z,20.79
2018-05-03T12:27:54.809Z,20.67
2018-05-03T12:28:56.107Z,20.64
2018-05-03T12:29:54.147Z,19.71
2018-05-03T12:30:53.693Z,18.95
2018-05-03T12:31:53.858Z,18.84
2018-05-03T12:32:53.655Z,18.78
2018-05-03T12:33:53.694Z,18.39
2018-05-03T12:34:53.665Z,18.42
2018-05-03T12:35:53.660Z,18.48
2018-05-03T12:36:53.568Z,18.11
2018-05-03T12:37:53.507Z,18.21
2018-05-03T12:38:53.507Z,18.95
2018-05-03T12:39:53.475Z,19.77
2018-05-03T12:40:53.479Z,20.57
2018-05-03T12:41:53.471Z,20.42
2018-05-03T12:42:53.385Z,20.36
2018-05-03T12:43:53.457Z,19.99
2018-05-03T12:44:53.689Z,19.22
2018-05-03T12:45:53.322Z,19.19
2018-05-03T12:46:53.397Z,19.04
2018-05-03T12:47:53.738Z,19.37
2018-05-03T12:48:53.226Z,20.10
2018-05-03T12:49:53.313Z,19.63
2018-05-03T12:50:54.175Z,19.65
2018-05-03T12:51:54.667Z,19.47
2018-05-03T12:52:53.208Z,18.73
2018-05-03T12:53:53.094Z,18.67
2018-05-03T12:54:53.065Z,17.96
2018-05-03T12:55:53.122Z,18.23
2018-05-03T12:56:53.101Z,18.63
2018-05-03T12:57:52.998Z,19.37
2018-05-03T12:58:52.968Z,19.76
2018-05-03T12:59:52.936Z,19.73
2018-05-03T13:00:53.014Z,20.32
2018-05-03T13:01:52.983Z,20.80
2018-05-03T13:02:52.880Z,20.92
2018-05-03T13:03:52.864Z,20.94
2018-05-03T13:04:52.876Z,20.67
2018-05-03T13:05:52.825Z,20.70
2018-05-03T13:06:52.767Z,20.06
2018-05-03T13:07:52.737Z,19.80
2018-05-03T13:08:52.721Z,19.87
2018-05-03T13:09:52.829Z,19.78
2018-05-03T13:10:52.681Z,19.87
2018-05-03T13:11:52.635Z,20.66
2018-05-03T13:12:52.642Z,20.52
2018-05-03T13:13:52.585Z,20.87
2018-05-03T13:14:52.587Z,19.88
2018-05-03T13:15:52.554Z,19.32
2018-05-03T13:16:52.692Z,18.37
2018-05-03T13:17:52.894Z,18.17
2018-05-03T13:18:52.534Z,18.11
2018-05-03T13:19:52.546Z,17.82
2018-05-03T13:20:52.459Z,18.02
2018-05-03T13:21:52.404Z,18.15
2018-05-03T13:22:52.377Z,18.60
2018-05-03T13:23:52.555Z,18.92
2018-05-03T13:24:52.454Z,19.61
2018-05-03T13:25:52.295Z,20.08
2018-05-03T13:26:52.294Z,20.28
2018-05-03T13:27:52.299Z,19.50
2018-05-03T13:28:52.216Z,19.02
2018-05-03T13:29:52.222Z,18.99
2018-05-03T13:30:52.163Z,19.78
2018-05-03T13:31:52.142Z,19.74
2018-05-03T13:32:52.183Z,20.02
2018-05-03T13:33:52.102Z,20.39
2018-05-03T13:34:52.062Z,20.21
2018-05-03T13:35:52.083Z,20.43
2018-05-03T13:36:52.103Z,20.43
2018-05-03T13:37:51.989Z,20.21
2018-05-03T13:38:51.980Z,20.43
2018-05-03T13:39:51.931Z,20.69
2018-05-03T13:40:51.931Z,20.51
2018-05-03T13:41:51.919Z,20.69
2018-05-03T13:42:51.889Z,20.24
2018-05-03T13:43:51.859Z,19.40
2018-05-03T13:44:51.813Z,18.88
2018-05-03T13:45:51.792Z,18.62
2018-05-03T13:46:51.932Z,18.50
2018-05-03T13:47:51.740Z,18.87
2018-05-03T13:48:51.703Z,19.43
2018-05-03T13:49:51.660Z,19.44
2018-05-03T13:50:51.639Z,19.54
2018-05-03T13:51:51.624Z,19.66
2018-05-03T13:52:51.587Z,19.65
2018-05-03T13:53:51.567Z,19.74
2018-05-03T13:54:51.582Z,19.26
2018-05-03T13:55:51.516Z,19.04
2018-05-03T13:56:51.566Z,18.88
2018-05-03T13:57:51.496Z,19.47
2018-05-03T13:58:51.487Z,20.01
2018-05-03T13:59:51.411Z,20.62
2018-05-03T14:00:51.512Z,20.84
2018-05-03T14:01:51.408Z,20.98
2018-05-03T14:02:51.345Z,20.54
2018-05-03T14:03:51.371Z,20.08
2018-05-03T14:04:51.322Z,19.44
2018-05-03T14:05:51.305Z,19.33
2018-05-03T14:06:51.315Z,19.56
2018-05-03T14:07:51.297Z,19.92
2018-05-03T14:08:51.167Z,19.87
2018-05-03T14:09:51.163Z,19.71
2018-05-03T14:10:51.171Z,19.78
2018-05-03T14:11:51.207Z,20.11
2018-05-03T14:12:51.083Z,19.81
2018-05-03T14:13:51.093Z,19.16
2018-05-03T14:14:51.202Z,18.76
2018-05-03T14:15:51.010Z,18.76
2018-05-03T14:16:51.056Z,18.63
2018-05-03T14:17:50.960Z,18.33
2018-05-03T14:18:50.952Z,18.72
2018-05-03T14:19:50.988Z,18.73